Miami International Airport
KMIA : now visible

Airfield :











YOU CAN JOIN US ON...

 
LOGIN :

Register | Disclaimer

   EN    FR    IT 

 









Legend :    VFR   Marginal VFR   IFR   Intensive IFR   Very Intensive IFR
Visi :
Ceiling :
>= 8 km
>= 3000ft
5 to 8 km
1000 to 3000 ft
1500m to 5 km
500 to 1000 ft
800 to 1500m
200 to 500 ft
< 800m
< 200 ft
Symbols :   Thunderstorms  Fog  Heavy snow  Heavy precipitations  Wind > 20 kt






- Airport Elevation : 8 ft
- IATA code : MIA


KMIA - Miami International

CURRENT METAR :
  • 020553Z 13009KT 10SM FEW016 SCT031 BKN045 BKN250 23/20 A3018 RMK AO2 SLP221 T02280200 10239 20228 58005 $

EXPIRED METARs :
  • 020453Z 13012G19KT 10SM FEW017 SCT023 BKN250 23/21 A3019 RMK AO2 SLP223 T02330206 402610222 $
  • 012053Z 12011KT 10SM SCT028 BKN060 OVC250 26/18 A3017 RMK AO2 SLP216 T02560183 56010 $
  • 020353Z 11009KT 10SM FEW017 SCT025 BKN250 23/21 A3020 RMK AO2 SLP225 T02330206 $
  • 020253Z 11006KT 10SM SCT025 BKN250 23/20 A3020 RMK AO2 SLP225 T02330200 51007 $
  • 020153Z 11007KT 10SM FEW025 SCT055 BKN250 23/20 A3019 RMK AO2 SLP223 T02330200 $

TAF KMIA
Valid from the 02 at 06:00 until the 03 at 12:00 UTC


020520Z 0206/0312 12010KT P6SM VCSH SCT020 OVC250
FM021500 15011G18KT P6SM SCT030 SCT050 OVC250
FM022300 14009KT P6SM FEW030 BKN250
KZMA FIR / North America



MET'MAP, your aeronautical weather chart ! - Copyright ORBIFLY December 2007 - Disclaimer

ORBIFLY MET'MAP TEAM :

Programming & Development : Alexandra Zaïnal
Original concept : Baudouin d'Aumeries
Technical & hardware support : Manuel Goepfert
Assistance : Marc-Olivier Méhu




SOURCES & CREDITS :

   NOAA       Earth
Advisory